createdAt,value
2022-08-10T00:01:36.032Z,105143.59
2022-08-10T00:04:03.325Z,105133.84
2022-08-10T00:06:30.217Z,105125.88
2022-08-10T00:08:57.176Z,105120.53
2022-08-10T00:11:24.645Z,105111.66
2022-08-10T00:13:52.146Z,105102.81
2022-08-10T00:16:19.344Z,105096.63
2022-08-10T00:18:46.126Z,105086.84
2022-08-10T00:21:12.901Z,105088.66
2022-08-10T00:23:39.824Z,105082.41
2022-08-10T00:26:06.743Z,105081.50
2022-08-10T00:28:34.177Z,105097.53
2022-08-10T00:31:01.101Z,105096.66
2022-08-10T00:33:28.066Z,105098.38
2022-08-10T00:35:54.825Z,105069.69
2022-08-10T00:38:22.472Z,105041.00
2022-08-10T00:40:49.463Z,105042.69
2022-08-10T00:43:16.934Z,105061.41
2022-08-10T00:45:59.330Z,105101.31
2022-08-10T00:48:30.516Z,105128.88
2022-08-10T00:51:00.600Z,105156.31
2022-08-10T00:53:28.542Z,105187.44
2022-08-10T00:57:14.591Z,105207.06
2022-08-10T00:58:43.951Z,105222.09
2022-08-10T01:02:10.097Z,105234.41
2022-08-10T01:04:36.175Z,105260.91
2022-08-10T01:07:10.226Z,105274.97
2022-08-10T01:09:59.710Z,105297.94
2022-08-10T01:12:39.043Z,105309.41
2022-08-10T01:15:19.413Z,105322.63
2022-08-10T01:17:50.534Z,105337.59
2022-08-10T01:20:30.079Z,105335.66
2022-08-10T01:22:58.042Z,105342.47
2022-08-10T01:26:12.372Z,105343.22
2022-08-10T01:29:00.865Z,105377.03
2022-08-10T01:31:32.974Z,105393.84
2022-08-10T01:34:07.862Z,105412.41
2022-08-10T01:36:46.409Z,105424.81
2022-08-10T01:39:21.666Z,105430.91
2022-08-10T01:41:53.528Z,105445.84
2022-08-10T01:44:29.434Z,105451.97
2022-08-10T01:47:22.360Z,105459.88
2022-08-10T01:49:53.901Z,105490.63
2022-08-10T01:52:23.978Z,105498.59
2022-08-10T01:54:53.323Z,105512.84
2022-08-10T01:57:25.800Z,105548.31
2022-08-10T02:00:02.104Z,105560.84
2022-08-10T02:02:34.131Z,105587.38
2022-08-10T02:05:05.150Z,105613.00
2022-08-10T02:07:33.465Z,105627.00
2022-08-10T02:10:09.656Z,105639.38
2022-08-10T02:12:39.755Z,105642.78
2022-08-10T02:15:11.149Z,105655.13
2022-08-10T02:17:59.093Z,105667.63
2022-08-10T02:20:36.808Z,105676.31
2022-08-10T02:23:08.859Z,105690.38
2022-08-10T02:25:40.648Z,105717.06
2022-08-10T02:28:29.992Z,105726.72
2022-08-10T02:31:06.923Z,105757.75
2022-08-10T02:33:38.936Z,105774.59
2022-08-10T02:36:27.077Z,105801.06
2022-08-10T02:39:00.018Z,105802.56
2022-08-10T02:45:02.152Z,105802.31
2022-08-10T02:45:23.851Z,105782.91
2022-08-10T02:47:26.595Z,105761.03
2022-08-10T02:50:08.332Z,105763.22
2022-08-10T02:52:44.398Z,105783.34
2022-08-10T02:55:19.865Z,105815.09
2022-08-10T02:58:15.298Z,105841.66
2022-08-10T03:00:48.611Z,105871.41
2022-08-10T03:03:22.564Z,105893.94
2022-08-10T03:05:53.568Z,105918.56
2022-08-10T03:08:26.460Z,105960.09
2022-08-10T03:10:56.569Z,105979.41
2022-08-10T03:13:24.864Z,106005.66
2022-08-10T03:15:52.036Z,106040.13
2022-08-10T03:18:22.827Z,106086.28
2022-08-10T03:20:51.288Z,106121.59
2022-08-10T03:23:23.366Z,106145.09
2022-08-10T03:25:55.249Z,106176.66
2022-08-10T03:28:24.717Z,106192.97
2022-08-10T03:30:52.995Z,106213.06
2022-08-10T03:33:22.275Z,106218.16
2022-08-10T03:36:43.365Z,106235.63
2022-08-10T03:38:37.685Z,106245.72
2022-08-10T03:41:08.603Z,106253.28
2022-08-10T03:43:36.660Z,106257.28
2022-08-10T03:46:08.037Z,106262.19
2022-08-10T03:48:49.237Z,106268.09
2022-08-10T03:51:18.800Z,106286.56
2022-08-10T03:54:04.335Z,106317.66
2022-08-10T03:56:38.791Z,106338.97
2022-08-10T03:59:08.005Z,106343.16
2022-08-10T04:02:44.075Z,106336.66
2022-08-10T04:04:24.492Z,106350.69
2022-08-10T04:06:54.651Z,106377.56
2022-08-10T04:09:23.879Z,106416.97
2022-08-10T04:11:50.648Z,106451.69
2022-08-10T04:14:38.334Z,106474.06
2022-08-10T04:17:04.266Z,106499.13
2022-08-10T04:19:40.991Z,106530.53
2022-08-10T04:22:14.796Z,106568.81
2022-08-10T04:24:43.279Z,106586.75
2022-08-10T04:27:10.313Z,106609.81
2022-08-10T04:29:37.610Z,106644.38
2022-08-10T04:32:06.546Z,106654.06
2022-08-10T04:34:35.502Z,106670.97
2022-08-10T04:37:09.047Z,106679.19
2022-08-10T04:39:37.476Z,106440.91
2022-08-10T04:42:06.144Z,106430.78
2022-08-10T04:44:33.814Z,106430.03
2022-08-10T04:47:00.600Z,106437.38
2022-08-10T04:49:55.704Z,106446.69
2022-08-10T04:52:14.944Z,106473.16
2022-08-10T04:54:41.924Z,106503.06
2022-08-10T04:57:09.054Z,106518.06
2022-08-10T04:59:36.302Z,106538.53
2022-08-10T05:02:21.590Z,106537.47
2022-08-10T05:04:50.266Z,106519.78
2022-08-10T05:07:18.665Z,106474.50
2022-08-10T05:10:01.859Z,106414.91
2022-08-10T05:12:35.698Z,106335.13
2022-08-10T05:15:11.669Z,106256.94
2022-08-10T05:17:40.216Z,106149.91
2022-08-10T05:20:09.910Z,106077.88
2022-08-10T05:22:39.416Z,105990.75
2022-08-10T05:25:11.239Z,105893.59
2022-08-10T05:27:39.322Z,105802.59
2022-08-10T05:30:07.659Z,105753.56
2022-08-10T05:32:56.411Z,105690.03
2022-08-10T05:35:23.141Z,105637.25
2022-08-10T05:38:09.349Z,105565.63
2022-08-10T05:40:46.306Z,105499.31
2022-08-10T05:43:20.078Z,105426.78
2022-08-10T05:46:17.573Z,105355.91
2022-08-10T05:48:55.363Z,105277.91
2022-08-10T05:51:23.648Z,105164.31
2022-08-10T05:54:01.432Z,105060.47
2022-08-10T05:56:55.326Z,104982.38
2022-08-10T06:00:09.071Z,104887.38
2022-08-10T06:02:34.042Z,104813.69
2022-08-10T06:04:58.606Z,104738.22
2022-08-10T06:07:27.451Z,104688.31
2022-08-10T06:09:59.317Z,104636.72
2022-08-10T06:12:30.878Z,104572.78
2022-08-10T06:15:05.732Z,104498.84
2022-08-10T06:17:33.175Z,104400.28
2022-08-10T06:20:01.221Z,104322.16
2022-08-10T06:22:32.350Z,104254.44
2022-08-10T06:27:49.343Z,104136.38
2022-08-10T06:30:20.420Z,104062.38
2022-08-10T06:32:53.582Z,104007.94
2022-08-10T06:35:21.305Z,103963.78
2022-08-10T06:37:51.850Z,103953.09
2022-08-10T06:40:20.278Z,103912.66
2022-08-10T06:42:50.037Z,103876.19
2022-08-10T06:45:21.358Z,103847.81
2022-08-10T06:47:51.043Z,103818.59
2022-08-10T06:50:45.306Z,103771.19
2022-08-10T06:53:18.374Z,103712.66
2022-08-10T06:55:55.569Z,103675.13
2022-08-10T06:58:29.394Z,103644.63
2022-08-10T07:00:56.948Z,103720.16
2022-08-10T07:03:30.716Z,103622.16
2022-08-10T07:05:59.914Z,103581.78
2022-08-10T07:08:31.492Z,103552.50
2022-08-10T07:10:59.358Z,103496.66
2022-08-10T07:14:17.315Z,103461.81
2022-08-10T07:16:16.496Z,103412.63
2022-08-10T07:18:44.946Z,103403.47
2022-08-10T07:21:13.716Z,103377.72
2022-08-10T07:23:54.942Z,103351.09
2022-08-10T07:26:24.978Z,103326.16
2022-08-10T07:28:52.746Z,103276.69
2022-08-10T07:31:54.607Z,103272.72
2022-08-10T07:34:09.401Z,103285.13
2022-08-10T07:36:40.232Z,103274.59
2022-08-10T07:39:08.956Z,103255.19
2022-08-10T07:41:41.275Z,103241.88
2022-08-10T07:44:11.362Z,103251.84
2022-08-10T07:46:43.272Z,103240.06
2022-08-10T07:49:20.510Z,103231.75
2022-08-10T07:51:54.534Z,103199.34
2022-08-10T07:54:25.292Z,103180.53
2022-08-10T07:56:56.417Z,103180.47
2022-08-10T07:59:28.521Z,103172.91
2022-08-10T08:01:56.325Z,103148.78
2022-08-10T08:04:24.885Z,103137.00
2022-08-10T08:06:53.646Z,103140.97
2022-08-10T08:09:22.077Z,103146.00
2022-08-10T08:11:50.159Z,103137.88
2022-08-10T08:14:19.111Z,103120.56
2022-08-10T08:16:48.934Z,103093.66
2022-08-10T08:19:37.959Z,103090.16
2022-08-10T08:24:11.140Z,103075.75
2022-08-10T08:24:56.948Z,103071.25
2022-08-10T08:27:26.215Z,103051.44
2022-08-10T08:29:53.776Z,103048.44
2022-08-10T08:32:26.383Z,103046.06
2022-08-10T08:34:59.688Z,103051.94
2022-08-10T08:38:31.940Z,103025.22
2022-08-10T08:40:24.512Z,103025.00
2022-08-10T08:43:27.308Z,103029.69
2022-08-10T08:46:18.290Z,103025.16
2022-08-10T08:49:04.811Z,103026.16
2022-08-10T08:52:09.715Z,103009.13
2022-08-10T08:55:05.209Z,102997.13
2022-08-10T08:58:20.453Z,102993.47
2022-08-10T09:01:06.401Z,102985.97
2022-08-10T09:03:58.034Z,102979.66
2022-08-10T09:06:52.548Z,102981.09
2022-08-10T09:09:38.508Z,102968.38
2022-08-10T09:12:33.969Z,102967.31
2022-08-10T09:15:09.570Z,102968.84
2022-08-10T09:18:05.570Z,102963.69
2022-08-10T09:20:49.340Z,102969.25
2022-08-10T09:24:04.038Z,102976.38
2022-08-10T09:26:22.874Z,102966.78
2022-08-10T09:29:12.266Z,102967.38
2022-08-10T09:36:13.657Z,102960.41
2022-08-10T09:36:19.533Z,102967.72
2022-08-10T09:38:04.200Z,102958.63
2022-08-10T09:41:06.276Z,102956.84
2022-08-10T09:43:43.779Z,102948.19
2022-08-10T09:46:22.770Z,102941.19
2022-08-10T09:49:09.520Z,102937.53
2022-08-10T09:51:55.116Z,102932.84
2022-08-10T09:54:57.302Z,102936.66
2022-08-10T09:57:46.739Z,102931.75
2022-08-10T10:00:20.606Z,102934.88
2022-08-10T10:03:17.753Z,102936.41
2022-08-10T10:06:09.915Z,102936.03
2022-08-10T10:08:53.799Z,102930.53
2022-08-10T10:12:09.717Z,102929.22
2022-08-10T10:15:09.744Z,102926.63
2022-08-10T10:18:02.798Z,102919.22
2022-08-10T10:20:53.991Z,102919.59
2022-08-10T10:23:55.178Z,102919.22
2022-08-10T10:26:50.286Z,102912.06
2022-08-10T10:29:56.414Z,102911.97
2022-08-10T10:32:37.328Z,102902.31
2022-08-10T10:35:23.549Z,102910.13
2022-08-10T10:38:02.639Z,102913.06
2022-08-10T10:40:52.808Z,102911.72
2022-08-10T10:43:54.573Z,102906.81
2022-08-10T10:46:48.311Z,102901.34
2022-08-10T10:49:35.427Z,102900.94
2022-08-10T10:52:14.861Z,102885.94
2022-08-10T10:54:59.840Z,102893.91
2022-08-10T10:58:09.015Z,102896.81
2022-08-10T11:00:55.767Z,102891.25
2022-08-10T11:03:41.102Z,102880.59
2022-08-10T11:06:40.545Z,102885.97
2022-08-10T11:10:04.877Z,102885.00
2022-08-10T11:12:18.266Z,102878.53
2022-08-10T11:15:09.360Z,102875.16
2022-08-10T11:17:48.956Z,102871.47
2022-08-10T11:20:54.211Z,102871.09
2022-08-10T11:23:41.878Z,102875.34
2022-08-10T11:26:35.328Z,102867.59
2022-08-10T11:29:18.498Z,102863.94
2022-08-10T11:31:55.537Z,102863.03
2022-08-10T11:34:49.205Z,102866.91
2022-08-10T11:38:31.195Z,102863.56
2022-08-10T11:40:50.771Z,102863.47
2022-08-10T11:43:22.634Z,102873.81
2022-08-10T11:46:27.674Z,102860.50
2022-08-10T11:49:13.770Z,102855.59
2022-08-10T11:51:48.333Z,102860.63
2022-08-10T11:54:37.215Z,102842.38
2022-08-10T11:57:04.249Z,102845.50
2022-08-10T11:59:57.888Z,102843.91
2022-08-10T12:02:44.653Z,102847.03
2022-08-10T12:05:48.214Z,102834.88
2022-08-10T12:10:12.096Z,102842.00
2022-08-10T12:11:05.636Z,102825.44
2022-08-10T12:13:58.487Z,102824.16
2022-08-10T12:16:35.022Z,102830.44
2022-08-10T12:19:08.807Z,102828.66
2022-08-10T12:21:42.868Z,102832.84
2022-08-10T12:24:18.445Z,102823.34
2022-08-10T12:27:19.997Z,102816.66
2022-08-10T12:29:59.175Z,102821.94
2022-08-10T12:32:35.596Z,102819.56
2022-08-10T12:35:35.725Z,102819.13
2022-08-10T12:38:15.000Z,102817.25
2022-08-10T12:40:48.645Z,102804.59
2022-08-10T12:44:05.051Z,102804.25
2022-08-10T12:46:32.347Z,102809.28
2022-08-10T12:49:20.141Z,102803.84
2022-08-10T12:51:55.794Z,102796.53
2022-08-10T12:54:32.546Z,102810.50
2022-08-10T12:57:03.591Z,102797.66
2022-08-10T12:59:32.064Z,102795.97
2022-08-10T13:02:10.249Z,102803.59
2022-08-10T13:04:40.511Z,102789.69
2022-08-10T13:07:10.033Z,102781.84
2022-08-10T13:09:56.542Z,102774.53
2022-08-10T13:12:44.455Z,102783.41
2022-08-10T13:15:47.999Z,102786.03
2022-08-10T13:18:06.919Z,102773.38
2022-08-10T13:20:52.177Z,102778.56
2022-08-10T13:23:27.510Z,102775.44
2022-08-10T13:25:58.206Z,102778.41
2022-08-10T13:28:39.609Z,102777.25
2022-08-10T13:31:16.794Z,102773.66
2022-08-10T13:34:39.510Z,102766.28
2022-08-10T13:36:47.621Z,102763.06
2022-08-10T13:39:19.759Z,102761.75
2022-08-10T13:41:49.250Z,102763.66
2022-08-10T13:44:28.226Z,102767.63
2022-08-10T13:46:56.413Z,102763.63
2022-08-10T13:49:23.520Z,102752.53
2022-08-10T13:51:56.970Z,102756.09
2022-08-10T13:54:37.169Z,102755.34
2022-08-10T13:57:05.198Z,102754.25
2022-08-10T14:00:37.592Z,102747.13
2022-08-10T14:02:25.720Z,102750.81
2022-08-10T14:04:55.706Z,102754.41
2022-08-10T14:07:24.121Z,102747.59
2022-08-10T14:09:53.179Z,102745.66
2022-08-10T14:12:33.386Z,102748.84
2022-08-10T14:15:03.147Z,102744.50
2022-08-10T14:17:30.525Z,102742.19
2022-08-10T14:19:59.478Z,102739.06
2022-08-10T14:22:33.901Z,102732.31
2022-08-10T14:25:19.347Z,102736.06
2022-08-10T14:28:01.929Z,102740.56
2022-08-10T14:30:31.326Z,102733.28
2022-08-10T14:33:04.043Z,102721.41
2022-08-10T14:36:19.106Z,102744.44
2022-08-10T14:38:26.672Z,102736.31
2022-08-10T14:40:57.001Z,102725.72
2022-08-10T14:43:32.966Z,102728.31
2022-08-10T14:46:06.469Z,102736.25
2022-08-10T14:48:39.913Z,102727.22
2022-08-10T14:51:10.862Z,102723.50
2022-08-10T14:53:39.992Z,102721.34
2022-08-10T14:56:14.457Z,102715.50
2022-08-10T14:59:05.426Z,102718.09
2022-08-10T15:02:01.150Z,102709.47
2022-08-10T15:04:26.592Z,102719.75
2022-08-10T15:07:00.118Z,102721.13
2022-08-10T15:10:01.168Z,102716.91
2022-08-10T15:12:33.072Z,102711.72
2022-08-10T15:15:01.411Z,102719.81
2022-08-10T15:17:37.637Z,102712.47
2022-08-10T15:20:16.722Z,102726.47
2022-08-10T15:22:50.878Z,102715.66
2022-08-10T15:25:24.646Z,102703.97
2022-08-10T15:28:17.056Z,102706.81
2022-08-10T15:30:47.447Z,102703.97
2022-08-10T15:33:57.931Z,102711.41
2022-08-10T15:36:58.720Z,102708.25
2022-08-10T15:40:22.305Z,102718.69
2022-08-10T15:42:23.899Z,102709.63
2022-08-10T15:44:54.019Z,102705.28
2022-08-10T15:47:45.307Z,102708.09
2022-08-10T15:50:34.441Z,102720.94
2022-08-10T15:53:28.079Z,102717.56
2022-08-10T15:55:58.744Z,102718.03
2022-08-10T15:58:39.317Z,102726.31
2022-08-10T16:02:13.970Z,102726.03
2022-08-10T16:04:49.691Z,102726.66
2022-08-10T16:07:21.801Z,102713.53
2022-08-10T16:10:24.577Z,102718.31
2022-08-10T16:12:59.790Z,102723.38
2022-08-10T16:15:30.259Z,102722.72
2022-08-10T16:18:09.625Z,102716.09
2022-08-10T16:20:54.830Z,102713.41
2022-08-10T16:23:29.320Z,102718.84
2022-08-10T16:26:04.666Z,102725.50
2022-08-10T16:28:51.823Z,102735.94
2022-08-10T16:31:22.385Z,102722.97
2022-08-10T16:33:55.746Z,102722.06
2022-08-10T16:36:32.110Z,102717.03
2022-08-10T16:39:00.241Z,102716.28
2022-08-10T16:42:05.241Z,102701.25
2022-08-10T16:44:19.557Z,102713.63
2022-08-10T16:46:47.503Z,102720.22
2022-08-10T16:49:16.706Z,102722.44
2022-08-10T16:51:49.271Z,102720.94
2022-08-10T16:54:27.314Z,102726.22
2022-08-10T16:57:01.307Z,102728.88
2022-08-10T16:59:31.145Z,102734.78
2022-08-10T17:02:00.372Z,102732.13
2022-08-10T17:04:29.355Z,102730.50
2022-08-10T17:06:58.290Z,102728.22
2022-08-10T17:09:32.028Z,102734.38
2022-08-10T17:12:04.277Z,102737.53
2022-08-10T17:14:31.400Z,102739.72
2022-08-10T17:17:00.564Z,102742.97
2022-08-10T17:19:30.207Z,102746.41
2022-08-10T17:21:59.644Z,102748.38
2022-08-10T17:24:34.335Z,102752.94
2022-08-10T17:28:24.394Z,102754.09
2022-08-10T17:30:04.646Z,102756.81
2022-08-10T17:32:44.807Z,102755.38
2022-08-10T17:35:14.530Z,102764.44
2022-08-10T17:37:48.555Z,102770.94
2022-08-10T17:40:18.924Z,102771.84
2022-08-10T17:42:50.444Z,102773.94
2022-08-10T17:45:47.816Z,102765.41
2022-08-10T17:48:09.696Z,102768.50
2022-08-10T17:50:38.059Z,102782.47
2022-08-10T17:53:08.307Z,102790.56
2022-08-10T17:55:38.498Z,102795.47
2022-08-10T17:58:13.655Z,102805.34
2022-08-10T18:00:46.034Z,102806.31
2022-08-10T18:03:25.055Z,102817.97
2022-08-10T18:05:56.224Z,102824.41
2022-08-10T18:08:32.057Z,102830.28
2022-08-10T18:11:00.584Z,102842.75
2022-08-10T18:13:55.155Z,102845.00
2022-08-10T18:16:24.851Z,102865.53
2022-08-10T18:18:58.354Z,102866.69
2022-08-10T18:21:30.732Z,102877.97
2022-08-10T18:24:07.707Z,102902.09
2022-08-10T18:26:41.030Z,102918.53
2022-08-10T18:29:14.014Z,102920.69
2022-08-10T18:31:47.573Z,102934.34
2022-08-10T18:34:19.802Z,102939.06
2022-08-10T18:36:48.617Z,102945.75
2022-08-10T18:39:21.893Z,102956.94
2022-08-10T18:42:00.333Z,102963.38
2022-08-10T18:44:41.064Z,102970.56
2022-08-10T18:47:16.179Z,102971.97
2022-08-10T18:49:59.375Z,102979.31
2022-08-10T18:52:29.702Z,102991.16
2022-08-10T18:55:14.398Z,102994.19
2022-08-10T18:58:16.162Z,103010.56
2022-08-10T19:01:04.764Z,103025.16
2022-08-10T19:03:59.294Z,103042.91
2022-08-10T19:06:55.597Z,103063.53
2022-08-10T19:09:45.865Z,103076.63
2022-08-10T19:12:31.638Z,103116.25
2022-08-10T19:15:36.301Z,103139.47
2022-08-10T19:18:31.207Z,103154.69
2022-08-10T19:21:08.130Z,103168.84
2022-08-10T19:23:43.651Z,103172.53
2022-08-10T19:26:44.129Z,103173.66
2022-08-10T19:30:11.165Z,103202.06
2022-08-10T19:32:37.406Z,103191.59
2022-08-10T19:35:11.046Z,103206.22
2022-08-10T19:38:31.996Z,103220.91
2022-08-10T19:41:12.801Z,103249.47
2022-08-10T19:44:03.088Z,103272.38
2022-08-10T19:47:11.373Z,103291.06
2022-08-10T19:49:45.694Z,103304.47
2022-08-10T19:52:27.208Z,103323.19
2022-08-10T19:55:17.600Z,103342.69
2022-08-10T19:57:49.669Z,103359.63
2022-08-10T20:00:22.950Z,103367.78
2022-08-10T20:03:03.116Z,103389.41
2022-08-10T20:05:39.162Z,103417.94
2022-08-10T20:08:13.659Z,103448.91
2022-08-10T20:11:46.236Z,103475.47
2022-08-10T20:14:22.497Z,103514.25
2022-08-10T20:16:53.508Z,103544.56
2022-08-10T20:19:53.460Z,103580.97
2022-08-10T20:22:34.884Z,103634.94
2022-08-10T20:25:06.057Z,103673.00
2022-08-10T20:27:59.556Z,103732.31
2022-08-10T20:30:32.506Z,103774.75
2022-08-10T20:33:12.304Z,103822.50
2022-08-10T20:35:53.289Z,103857.84
2022-08-10T20:38:29.011Z,103885.25
2022-08-10T20:41:33.891Z,103910.16
2022-08-10T20:44:31.778Z,103948.22
2022-08-10T20:47:36.929Z,103972.09
2022-08-10T20:50:35.044Z,104009.38
2022-08-10T20:53:14.996Z,104045.66
2022-08-10T20:55:54.202Z,104067.78
2022-08-10T20:58:58.448Z,104087.34
2022-08-10T21:02:06.230Z,104108.66
2022-08-10T21:04:33.466Z,104138.81
2022-08-10T21:07:43.966Z,104157.44
2022-08-10T21:10:16.316Z,104196.31
2022-08-10T21:12:44.176Z,104204.25
2022-08-10T21:15:55.653Z,104198.97
2022-08-10T21:18:25.726Z,104209.56
2022-08-10T21:21:01.510Z,104201.69
2022-08-10T21:23:32.243Z,104221.94
2022-08-10T21:26:13.508Z,104221.13
2022-08-10T21:28:50.214Z,104227.38
2022-08-10T21:31:38.797Z,104230.13
2022-08-10T21:34:32.122Z,104247.81
2022-08-10T21:37:08.024Z,104270.88
2022-08-10T21:39:50.727Z,104281.56
2022-08-10T21:42:51.206Z,104299.28
2022-08-10T21:45:58.242Z,104195.75
2022-08-10T21:48:57.815Z,104240.03
2022-08-10T21:52:06.792Z,104272.81
2022-08-10T21:55:02.180Z,104310.00
2022-08-10T21:58:05.374Z,104338.34
2022-08-10T22:00:55.822Z,104372.91
2022-08-10T22:03:42.117Z,104418.00
2022-08-10T22:06:31.055Z,104453.41
2022-08-10T22:09:26.543Z,104483.50
2022-08-10T22:12:24.906Z,104511.81
2022-08-10T22:16:03.826Z,104534.84
2022-08-10T22:18:58.741Z,104550.75
2022-08-10T22:22:27.420Z,104562.25
2022-08-10T22:25:29.358Z,104611.75
2022-08-10T22:28:18.096Z,104639.16
2022-08-10T22:31:30.955Z,104665.69
2022-08-10T22:34:51.006Z,104710.72
2022-08-10T22:37:52.616Z,104755.81
2022-08-10T22:40:40.978Z,104799.19
2022-08-10T22:43:35.562Z,104819.47
2022-08-10T22:46:30.427Z,104849.56
2022-08-10T22:49:00.107Z,104856.56
2022-08-10T22:52:10.359Z,104871.53
2022-08-10T22:55:21.236Z,104895.44
2022-08-10T22:58:08.674Z,104907.81
2022-08-10T23:00:37.239Z,104933.47
2022-08-10T23:03:15.924Z,104958.22
2022-08-10T23:05:57.586Z,104965.34
2022-08-10T23:08:32.042Z,104981.28
2022-08-10T23:11:08.495Z,104990.13
2022-08-10T23:13:40.786Z,104981.28
2022-08-10T23:16:36.944Z,104972.41
2022-08-10T23:19:37.999Z,104959.16
2022-08-10T23:22:13.806Z,104943.28
2022-08-10T23:25:15.130Z,104922.03
2022-08-10T23:27:46.733Z,104902.63
2022-08-10T23:30:17.438Z,104869.88
2022-08-10T23:32:51.289Z,104845.97
2022-08-10T23:36:31.003Z,104823.88
2022-08-10T23:38:12.393Z,104806.19
2022-08-10T23:40:45.442Z,104797.41
2022-08-10T23:43:18.889Z,104770.84
2022-08-10T23:45:53.756Z,104748.78
2022-08-10T23:48:29.584Z,104724.88
2022-08-10T23:51:01.853Z,104694.78
2022-08-10T23:53:41.325Z,104672.69
2022-08-10T23:56:12.521Z,104660.28
2022-08-10T23:58:44.725Z,104646.13
